createdAt,value
2018-11-26T00:00:46.241Z,5.30
2018-11-26T00:03:14.791Z,5.50
2018-11-26T00:05:43.450Z,5.40
2018-11-26T00:08:12.798Z,5.40
2018-11-26T00:10:52.366Z,5.30
2018-11-26T00:13:21.887Z,5.60
2018-11-26T00:15:50.480Z,5.30
2018-11-26T00:18:19.252Z,5.30
2018-11-26T00:20:47.890Z,5.30
2018-11-26T00:23:16.561Z,5.10
2018-11-26T00:25:45.235Z,5.00
2018-11-26T00:28:13.738Z,5.20
2018-11-26T00:30:42.357Z,5.60
2018-11-26T00:33:10.923Z,5.40
2018-11-26T00:35:39.445Z,5.30
2018-11-26T00:38:08.024Z,5.30
2018-11-26T00:40:36.557Z,5.40
2018-11-26T00:43:05.110Z,5.20
2018-11-26T00:45:33.671Z,5.20
2018-11-26T00:48:02.455Z,5.60
2018-11-26T00:50:30.990Z,5.50
2018-11-26T00:52:59.606Z,5.20
2018-11-26T00:55:28.307Z,5.10
2018-11-26T00:57:56.963Z,5.20
2018-11-26T01:00:25.647Z,5.40
2018-11-26T01:02:54.265Z,5.40
2018-11-26T01:05:40.121Z,5.50
2018-11-26T01:08:08.946Z,5.60
2018-11-26T01:10:37.591Z,5.60
2018-11-26T01:13:06.919Z,5.60
2018-11-26T01:15:35.528Z,5.60
2018-11-26T01:18:04.220Z,5.70
2018-11-26T01:20:32.778Z,5.60
2018-11-26T01:23:01.347Z,5.40
2018-11-26T01:25:29.932Z,5.40
2018-11-26T01:27:58.478Z,5.50
2018-11-26T01:30:27.379Z,5.00
2018-11-26T01:32:55.885Z,5.40
2018-11-26T01:35:24.430Z,5.60
2018-11-26T01:37:52.949Z,5.30
2018-11-26T01:40:29.820Z,5.30
2018-11-26T01:42:58.473Z,5.20
2018-11-26T01:45:27.234Z,5.10
2018-11-26T01:47:55.948Z,5.50
2018-11-26T01:50:24.493Z,5.20
2018-11-26T01:52:53.085Z,5.20
2018-11-26T01:55:21.634Z,5.60
2018-11-26T01:57:50.343Z,5.60
2018-11-26T02:00:22.259Z,5.60
2018-11-26T02:02:50.833Z,5.50
2018-11-26T02:05:19.418Z,5.60
2018-11-26T02:07:48.022Z,5.30
2018-11-26T02:10:17.553Z,5.50
2018-11-26T02:12:46.175Z,5.40
2018-11-26T02:15:38.333Z,5.30
2018-11-26T02:18:07.711Z,5.60
2018-11-26T02:20:36.265Z,5.50
2018-11-26T02:23:04.885Z,5.20
2018-11-26T02:25:33.712Z,5.10
2018-11-26T02:28:02.329Z,5.20
2018-11-26T02:30:31.122Z,5.30
2018-11-26T02:32:59.647Z,5.50
2018-11-26T02:35:28.171Z,5.40
2018-11-26T02:37:56.783Z,5.50
2018-11-26T02:40:29.101Z,5.70
2018-11-26T02:42:57.621Z,5.20
2018-11-26T02:45:26.327Z,5.50
2018-11-26T02:47:54.908Z,5.40
2018-11-26T02:50:23.497Z,5.40
2018-11-26T02:52:52.046Z,5.40
2018-11-26T02:55:20.602Z,5.30
2018-11-26T02:57:49.168Z,5.30
2018-11-26T03:00:17.838Z,5.50
2018-11-26T03:02:46.661Z,5.50
2018-11-26T03:05:30.866Z,5.60
2018-11-26T03:07:59.428Z,5.50
2018-11-26T03:10:27.942Z,5.10
2018-11-26T03:12:56.540Z,5.50
2018-11-26T03:15:25.108Z,5.10
2018-11-26T03:17:53.726Z,5.00
2018-11-26T03:20:22.248Z,5.10
2018-11-26T03:22:50.770Z,5.60
2018-11-26T03:25:19.326Z,5.30
2018-11-26T03:27:47.860Z,5.50
2018-11-26T03:30:18.385Z,5.40
2018-11-26T03:32:46.962Z,5.50
2018-11-26T03:35:15.494Z,5.30
2018-11-26T03:37:44.010Z,5.60
2018-11-26T03:40:13.428Z,5.60
2018-11-26T03:42:42.242Z,5.60
2018-11-26T03:45:13.117Z,5.60
2018-11-26T03:47:41.663Z,5.60
2018-11-26T03:50:10.980Z,5.30
2018-11-26T03:52:39.546Z,5.40
2018-11-26T03:55:09.496Z,5.40
2018-11-26T03:57:38.026Z,5.50
2018-11-26T04:00:12.223Z,5.40
2018-11-26T04:02:40.747Z,5.50
2018-11-26T04:05:10.080Z,5.20
2018-11-26T04:07:38.653Z,5.30
2018-11-26T04:10:09.655Z,5.60
2018-11-26T04:12:38.266Z,5.60
2018-11-26T04:15:09.558Z,5.60
2018-11-26T04:17:38.106Z,5.50
2018-11-26T04:20:07.540Z,5.20
2018-11-26T04:22:36.053Z,5.60
2018-11-26T04:25:04.886Z,5.60
2018-11-26T04:27:33.413Z,5.60
2018-11-26T04:30:01.947Z,5.50
2018-11-26T04:32:30.495Z,5.60
2018-11-26T04:34:59.202Z,5.30
2018-11-26T04:37:27.741Z,5.60
2018-11-26T04:39:56.264Z,5.70
2018-11-26T04:42:24.764Z,5.70
2018-11-26T04:44:53.301Z,5.70
2018-11-26T04:47:21.773Z,5.50
2018-11-26T04:49:50.320Z,5.80
2018-11-26T04:52:18.823Z,5.70
2018-11-26T04:54:47.422Z,6.00
2018-11-26T04:57:16.095Z,5.50
2018-11-26T04:59:44.660Z,5.70
2018-11-26T05:02:13.211Z,5.60
2018-11-26T05:04:41.811Z,5.60
2018-11-26T05:07:10.311Z,5.50
2018-11-26T05:09:38.871Z,5.80
2018-11-26T05:12:07.368Z,5.50
2018-11-26T05:14:35.892Z,5.80
2018-11-26T05:17:04.413Z,5.50
2018-11-26T05:19:33.951Z,5.50
2018-11-26T05:22:02.508Z,5.90
2018-11-26T05:24:31.049Z,5.90
2018-11-26T05:26:59.598Z,5.80
2018-11-26T05:29:28.131Z,5.60
2018-11-26T05:31:56.700Z,5.80
2018-11-26T05:34:25.276Z,5.70
2018-11-26T05:36:53.828Z,6.00
2018-11-26T05:39:22.328Z,5.80
2018-11-26T05:41:51.056Z,5.90
2018-11-26T05:44:19.556Z,5.90
2018-11-26T05:46:48.149Z,5.60
2018-11-26T05:49:16.700Z,5.70
2018-11-26T05:51:45.316Z,5.70
2018-11-26T05:54:13.869Z,5.90
2018-11-26T05:56:42.433Z,5.70
2018-11-26T05:59:10.931Z,5.90
2018-11-26T06:01:39.531Z,5.70
2018-11-26T06:04:08.188Z,5.80
2018-11-26T06:06:36.711Z,5.30
2018-11-26T06:09:08.764Z,5.30
2018-11-26T06:11:38.248Z,5.40
2018-11-26T06:14:07.128Z,5.30
2018-11-26T06:16:36.791Z,5.30
2018-11-26T06:19:05.788Z,5.60
2018-11-26T06:21:34.273Z,5.50
2018-11-26T06:24:02.817Z,5.70
2018-11-26T06:26:31.357Z,5.60
2018-11-26T06:28:59.897Z,5.30
2018-11-26T06:31:28.407Z,5.30
2018-11-26T06:33:56.929Z,5.60
2018-11-26T06:36:25.530Z,5.80
2018-11-26T06:38:54.017Z,6.00
2018-11-26T06:41:22.540Z,6.10
2018-11-26T06:43:51.143Z,5.50
2018-11-26T06:46:19.835Z,5.50
2018-11-26T06:48:48.319Z,5.70
2018-11-26T06:51:16.835Z,5.60
2018-11-26T06:53:45.370Z,5.50
2018-11-26T06:56:13.885Z,5.70
2018-11-26T06:58:42.364Z,5.80
2018-11-26T07:01:10.943Z,5.40
2018-11-26T07:03:39.501Z,5.60
2018-11-26T07:06:08.132Z,5.30
2018-11-26T07:08:37.483Z,5.30
2018-11-26T07:11:06.201Z,5.50
2018-11-26T07:13:34.742Z,5.80
2018-11-26T07:16:03.419Z,5.60
2018-11-26T07:18:31.989Z,5.50
2018-11-26T07:21:00.661Z,5.50
2018-11-26T07:23:29.323Z,5.80
2018-11-26T07:25:57.905Z,6.10
2018-11-26T07:28:26.497Z,5.80
2018-11-26T07:30:58.276Z,5.50
2018-11-26T07:33:27.697Z,5.80
2018-11-26T07:35:56.320Z,5.50
2018-11-26T07:38:25.008Z,5.60
2018-11-26T07:40:53.572Z,5.50
2018-11-26T07:43:22.102Z,5.60
2018-11-26T07:45:50.730Z,5.50
2018-11-26T07:48:19.296Z,5.70
2018-11-26T07:50:47.827Z,5.60
2018-11-26T07:53:16.439Z,5.50
2018-11-26T07:55:45.095Z,5.80
2018-11-26T07:58:13.657Z,5.40
2018-11-26T08:00:42.202Z,5.40
2018-11-26T08:03:10.767Z,5.30
2018-11-26T08:05:39.330Z,5.60
2018-11-26T08:08:07.908Z,5.30
2018-11-26T08:10:36.526Z,5.40
2018-11-26T08:13:05.554Z,5.20
2018-11-26T08:15:34.371Z,5.20
2018-11-26T08:18:02.943Z,5.60
2018-11-26T08:20:31.526Z,5.80
2018-11-26T08:23:00.114Z,5.50
2018-11-26T08:25:28.731Z,5.60
2018-11-26T08:27:57.335Z,5.40
2018-11-26T08:30:27.066Z,5.50
2018-11-26T08:32:58.666Z,5.80
2018-11-26T08:35:27.367Z,5.50
2018-11-26T08:38:01.222Z,5.80
2018-11-26T08:40:34.988Z,5.50
2018-11-26T08:43:09.562Z,5.90
2018-11-26T08:45:42.327Z,6.00
2018-11-26T08:48:15.906Z,5.90
2018-11-26T08:50:44.823Z,5.70
2018-11-26T08:53:13.462Z,6.00
2018-11-26T08:55:49.872Z,5.80
2018-11-26T08:58:18.523Z,5.60
2018-11-26T09:00:47.222Z,5.50
2018-11-26T09:03:21.922Z,5.70
2018-11-26T09:05:55.563Z,5.70
2018-11-26T09:08:24.395Z,5.80
2018-11-26T09:10:53.159Z,6.00
2018-11-26T09:13:21.795Z,6.00
2018-11-26T09:15:50.474Z,6.10
2018-11-26T09:18:19.228Z,6.10
2018-11-26T09:20:48.084Z,5.80
2018-11-26T09:23:16.814Z,5.90
2018-11-26T09:25:45.520Z,5.90
2018-11-26T09:28:14.212Z,5.80
2018-11-26T09:30:43.048Z,5.90
2018-11-26T09:33:11.821Z,5.90
2018-11-26T09:35:40.645Z,5.80
2018-11-26T09:38:09.638Z,5.90
2018-11-26T09:40:38.298Z,6.10
2018-11-26T09:43:07.692Z,6.30
2018-11-26T09:45:40.500Z,6.00
2018-11-26T09:48:05.029Z,6.20
2018-11-26T09:50:33.659Z,6.20
2018-11-26T09:53:02.306Z,6.20
2018-11-26T09:55:31.020Z,6.20
2018-11-26T09:57:59.729Z,6.10
2018-11-26T10:00:28.651Z,6.40
2018-11-26T10:02:57.344Z,6.10
2018-11-26T10:05:26.326Z,6.30
2018-11-26T10:07:55.148Z,6.10
2018-11-26T10:10:23.819Z,6.10
2018-11-26T10:12:52.621Z,6.00
2018-11-26T10:15:22.391Z,6.40
2018-11-26T10:17:51.208Z,6.40
2018-11-26T10:20:20.032Z,6.30
2018-11-26T10:22:49.375Z,6.20
2018-11-26T10:25:20.920Z,6.30
2018-11-26T10:27:49.609Z,6.50
2018-11-26T10:30:20.768Z,6.40
2018-11-26T10:32:50.297Z,6.10
2018-11-26T10:35:19.617Z,6.00
2018-11-26T10:37:48.406Z,6.20
2018-11-26T10:40:26.833Z,6.10
2018-11-26T10:42:55.759Z,6.50
2018-11-26T10:45:25.032Z,6.50
2018-11-26T10:47:53.835Z,6.50
2018-11-26T10:50:24.301Z,6.50
2018-11-26T10:52:54.226Z,6.50
2018-11-26T10:55:24.219Z,6.40
2018-11-26T10:57:53.006Z,6.30
2018-11-26T11:00:26.911Z,6.60
2018-11-26T11:02:55.869Z,6.50
2018-11-26T11:05:24.279Z,6.60
2018-11-26T11:07:53.040Z,6.70
2018-11-26T11:10:25.759Z,6.50
2018-11-26T11:12:54.429Z,6.60
2018-11-26T11:15:23.122Z,6.50
2018-11-26T11:17:51.668Z,6.60
2018-11-26T11:20:21.518Z,6.40
2018-11-26T11:22:50.108Z,6.40
2018-11-26T11:25:19.304Z,6.70
2018-11-26T11:27:48.033Z,6.70
2018-11-26T11:30:22.685Z,6.80
2018-11-26T11:32:51.326Z,6.70
2018-11-26T11:35:20.030Z,6.70
2018-11-26T11:37:49.522Z,6.70
2018-11-26T11:40:20.199Z,6.70
2018-11-26T11:42:49.002Z,6.80
2018-11-26T11:45:17.720Z,7.00
2018-11-26T11:47:46.370Z,7.10
2018-11-26T11:50:16.181Z,7.10
2018-11-26T11:52:45.159Z,6.90
2018-11-26T11:55:18.711Z,7.00
2018-11-26T11:57:47.445Z,7.10
2018-11-26T12:00:25.607Z,7.20
2018-11-26T12:02:55.632Z,7.10
2018-11-26T12:05:24.314Z,7.00
2018-11-26T12:07:53.023Z,7.00
2018-11-26T12:10:21.858Z,7.20
2018-11-26T12:12:50.608Z,7.10
2018-11-26T12:15:19.362Z,7.00
2018-11-26T12:17:48.903Z,6.90
2018-11-26T12:20:17.647Z,7.00
2018-11-26T12:22:46.606Z,6.90
2018-11-26T12:25:17.468Z,7.00
2018-11-26T12:27:46.158Z,6.80
2018-11-26T12:30:22.843Z,7.00
2018-11-26T12:32:51.809Z,7.00
2018-11-26T12:35:20.456Z,6.90
2018-11-26T12:37:49.329Z,7.00
2018-11-26T12:40:22.208Z,6.90
2018-11-26T12:42:52.206Z,7.10
2018-11-26T12:45:24.161Z,7.00
2018-11-26T12:47:52.902Z,7.00
2018-11-26T12:50:21.660Z,7.20
2018-11-26T12:52:50.392Z,6.90
2018-11-26T12:55:20.084Z,7.20
2018-11-26T12:57:50.204Z,7.30
2018-11-26T13:00:26.629Z,7.40
2018-11-26T13:02:57.219Z,7.40
2018-11-26T13:05:26.008Z,7.50
2018-11-26T13:07:54.763Z,7.30
2018-11-26T13:10:24.080Z,6.90
2018-11-26T13:12:53.395Z,7.00
2018-11-26T13:15:23.468Z,6.90
2018-11-26T13:17:53.399Z,7.00
2018-11-26T13:20:25.799Z,7.00
2018-11-26T13:22:55.020Z,7.00
2018-11-26T13:25:25.815Z,6.70
2018-11-26T13:27:56.326Z,6.90
2018-11-26T13:30:27.330Z,7.00
2018-11-26T13:32:57.238Z,7.10
2018-11-26T13:35:26.242Z,7.00
2018-11-26T13:37:54.994Z,7.10
2018-11-26T13:40:23.685Z,7.50
2018-11-26T13:42:52.667Z,7.20
2018-11-26T13:45:24.337Z,7.30
2018-11-26T13:47:53.080Z,7.40
2018-11-26T13:50:23.105Z,7.30
2018-11-26T13:52:51.864Z,7.20
2018-11-26T13:55:20.653Z,6.90
2018-11-26T13:57:49.436Z,7.10
2018-11-26T14:00:18.216Z,7.20
2018-11-26T14:02:46.906Z,7.30
2018-11-26T14:05:16.677Z,7.20
2018-11-26T14:07:46.110Z,7.60
2018-11-26T14:10:18.927Z,7.20
2018-11-26T14:12:49.334Z,7.50
2018-11-26T14:15:18.066Z,7.40
2018-11-26T14:17:47.750Z,7.20
2018-11-26T14:20:16.993Z,7.20
2018-11-26T14:22:45.808Z,7.10
2018-11-26T14:25:15.557Z,7.00
2018-11-26T14:27:45.008Z,7.10
2018-11-26T14:30:17.687Z,7.20
2018-11-26T14:32:46.529Z,7.00
2018-11-26T14:35:15.365Z,7.00
2018-11-26T14:37:44.469Z,7.10
2018-11-26T14:40:15.859Z,7.10
2018-11-26T14:42:44.533Z,7.40
2018-11-26T14:45:13.885Z,7.30
2018-11-26T14:47:44.068Z,7.00
2018-11-26T14:50:20.962Z,7.20
2018-11-26T14:55:42.290Z,7.30
2018-11-26T14:58:10.885Z,7.20
2018-11-26T15:00:39.491Z,7.00
2018-11-26T15:03:08.479Z,7.00
2018-11-26T15:05:37.047Z,7.00
2018-11-26T15:08:05.741Z,7.00
2018-11-26T15:10:34.520Z,6.90
2018-11-26T15:13:03.210Z,7.10
2018-11-26T15:15:31.846Z,6.70
2018-11-26T15:18:00.410Z,6.70
2018-11-26T15:20:29.988Z,6.70
2018-11-26T15:22:59.639Z,6.70
2018-11-26T15:25:30.183Z,7.10
2018-11-26T15:28:00.098Z,6.70
2018-11-26T15:30:28.769Z,6.90
2018-11-26T15:32:57.584Z,6.80
2018-11-26T15:35:26.198Z,6.80
2018-11-26T15:37:55.061Z,6.80
2018-11-26T15:40:23.598Z,6.70
2018-11-26T15:42:52.162Z,6.70
2018-11-26T15:45:26.286Z,6.70
2018-11-26T15:47:56.151Z,6.70
2018-11-26T15:50:24.656Z,6.70
2018-11-26T15:52:53.219Z,6.70
2018-11-26T15:55:22.132Z,6.70
2018-11-26T15:57:51.164Z,6.70
2018-11-26T16:00:21.633Z,6.70
2018-11-26T16:02:50.407Z,6.60
2018-11-26T16:05:27.832Z,6.60
2018-11-26T16:07:59.711Z,6.60
2018-11-26T16:10:28.187Z,6.90
2018-11-26T16:12:58.054Z,6.60
2018-11-26T16:15:28.837Z,6.70
2018-11-26T16:17:58.848Z,6.80
2018-11-26T16:20:27.909Z,6.60
2018-11-26T16:22:57.434Z,6.60
2018-11-26T16:25:26.116Z,6.80
2018-11-26T16:27:54.882Z,6.60
2018-11-26T16:30:23.402Z,6.70
2018-11-26T16:32:58.161Z,6.80
2018-11-26T16:35:30.848Z,6.70
2018-11-26T16:37:59.484Z,6.70
2018-11-26T16:40:27.965Z,6.50
2018-11-26T16:42:56.505Z,6.70
2018-11-26T16:45:26.055Z,6.60
2018-11-26T16:47:55.347Z,6.50
2018-11-26T16:50:25.150Z,6.70
2018-11-26T16:52:53.689Z,6.70
2018-11-26T16:55:22.254Z,6.80
2018-11-26T16:57:51.206Z,6.70
2018-11-26T17:00:24.462Z,6.60
2018-11-26T17:02:55.127Z,6.60
2018-11-26T17:05:26.844Z,6.40
2018-11-26T17:07:55.429Z,6.40
2018-11-26T17:10:23.977Z,6.60
2018-11-26T17:12:52.482Z,6.40
2018-11-26T17:15:20.993Z,6.40
2018-11-26T17:17:49.563Z,6.40
2018-11-26T17:20:18.352Z,6.40
2018-11-26T17:22:46.935Z,6.50
2018-11-26T17:25:16.393Z,6.60
2018-11-26T17:27:45.294Z,6.40
2018-11-26T17:30:18.993Z,6.60
2018-11-26T17:32:48.761Z,6.80
2018-11-26T17:35:17.641Z,6.60
2018-11-26T17:37:46.194Z,6.60
2018-11-26T17:40:17.731Z,6.50
2018-11-26T17:42:46.260Z,6.40
2018-11-26T17:45:15.359Z,6.50
2018-11-26T17:47:45.207Z,6.50
2018-11-26T17:50:16.142Z,6.50
2018-11-26T17:52:44.677Z,6.40
2018-11-26T17:55:13.315Z,6.60
2018-11-26T17:57:41.802Z,6.60
2018-11-26T18:00:20.084Z,6.50
2018-11-26T18:02:48.608Z,6.50
2018-11-26T18:05:24.997Z,6.60
2018-11-26T18:08:01.030Z,6.40
2018-11-26T18:10:29.605Z,6.60
2018-11-26T18:12:58.142Z,6.60
2018-11-26T18:15:26.777Z,6.50
2018-11-26T18:17:55.246Z,6.70
2018-11-26T18:20:23.798Z,6.50
2018-11-26T18:22:53.369Z,6.60
2018-11-26T18:25:22.689Z,6.60
2018-11-26T18:27:55.860Z,6.40
2018-11-26T18:30:31.245Z,6.40
2018-11-26T18:32:59.837Z,6.40
2018-11-26T18:35:28.302Z,6.30
2018-11-26T18:37:56.866Z,6.40
2018-11-26T18:40:25.484Z,6.60
2018-11-26T18:42:54.044Z,6.60
2018-11-26T18:45:52.823Z,6.40
2018-11-26T18:48:22.445Z,6.40
2018-11-26T18:50:49.934Z,6.60
2018-11-26T18:53:18.464Z,6.80
2018-11-26T18:55:47.178Z,6.40
2018-11-26T18:58:15.784Z,6.60
2018-11-26T19:01:01.216Z,6.50
2018-11-26T19:03:29.716Z,6.60
2018-11-26T19:05:58.545Z,6.50
2018-11-26T19:08:27.321Z,6.40
2018-11-26T19:10:58.269Z,6.40
2018-11-26T19:13:36.584Z,6.40
2018-11-26T19:16:16.353Z,6.30
2018-11-26T19:18:44.911Z,6.30
2018-11-26T19:21:13.438Z,6.50
2018-11-26T19:23:42.007Z,6.50
2018-11-26T19:26:10.561Z,6.50
2018-11-26T19:28:39.091Z,6.50
2018-11-26T19:31:07.899Z,6.60
2018-11-26T19:33:36.459Z,6.60
2018-11-26T19:36:05.101Z,6.50
2018-11-26T19:38:33.596Z,6.40
2018-11-26T19:41:02.119Z,6.30
2018-11-26T19:43:30.621Z,6.60
2018-11-26T19:45:59.181Z,6.50
2018-11-26T19:48:27.724Z,6.60
2018-11-26T19:50:56.264Z,6.40
2018-11-26T19:53:24.816Z,6.60
2018-11-26T19:55:53.333Z,6.50
2018-11-26T19:58:21.933Z,6.40
2018-11-26T20:00:50.447Z,6.60
2018-11-26T20:03:24.668Z,6.50
2018-11-26T20:06:02.014Z,6.60
2018-11-26T20:08:31.617Z,6.60
2018-11-26T20:11:00.168Z,6.20
2018-11-26T20:13:28.942Z,6.50
2018-11-26T20:15:57.579Z,6.50
2018-11-26T20:18:28.572Z,6.60
2018-11-26T20:20:57.227Z,6.30
2018-11-26T20:23:25.947Z,6.60
2018-11-26T20:25:54.489Z,6.60
2018-11-26T20:28:23.024Z,6.60
2018-11-26T20:30:51.690Z,6.40
2018-11-26T20:33:20.259Z,6.30
2018-11-26T20:35:48.807Z,6.70
2018-11-26T20:38:17.358Z,6.50
2018-11-26T20:40:45.907Z,6.50
2018-11-26T20:43:15.072Z,6.60
2018-11-26T20:45:45.429Z,6.50
2018-11-26T20:48:13.994Z,6.50
2018-11-26T20:50:44.627Z,6.50
2018-11-26T20:53:13.190Z,6.50
2018-11-26T20:55:41.803Z,6.50
2018-11-26T20:58:10.367Z,6.60
2018-11-26T21:00:39.987Z,6.40
2018-11-26T21:03:09.887Z,6.30
2018-11-26T21:05:38.915Z,6.80
2018-11-26T21:08:07.531Z,6.70
2018-11-26T21:10:36.278Z,6.40
2018-11-26T21:13:04.857Z,6.40
2018-11-26T21:15:33.430Z,6.40
2018-11-26T21:18:04.757Z,6.40
2018-11-26T21:20:36.053Z,6.40
2018-11-26T21:23:06.806Z,6.60
2018-11-26T21:25:35.346Z,6.60
2018-11-26T21:28:03.899Z,6.30
2018-11-26T21:30:32.613Z,6.30
2018-11-26T21:33:01.172Z,6.30
2018-11-26T21:35:29.726Z,6.50
2018-11-26T21:37:58.249Z,6.60
2018-11-26T21:40:26.789Z,6.30
2018-11-26T21:42:55.366Z,6.30
2018-11-26T21:46:27.431Z,6.30
2018-11-26T21:48:55.980Z,6.30
2018-11-26T21:51:24.560Z,6.50
2018-11-26T21:53:53.060Z,6.40
2018-11-26T21:56:21.588Z,6.00
2018-11-26T21:58:50.062Z,6.40
2018-11-26T22:01:18.606Z,6.30
2018-11-26T22:03:47.082Z,6.60
2018-11-26T22:06:15.617Z,6.50
2018-11-26T22:08:44.142Z,6.50
2018-11-26T22:11:12.602Z,6.40
2018-11-26T22:13:41.121Z,6.60
2018-11-26T22:16:09.692Z,6.50
2018-11-26T22:18:38.202Z,6.60
2018-11-26T22:21:06.801Z,6.60
2018-11-26T22:23:35.443Z,6.60
2018-11-26T22:26:03.973Z,6.50
2018-11-26T22:28:32.454Z,6.40
2018-11-26T22:31:00.975Z,6.30
2018-11-26T22:33:30.353Z,6.50
2018-11-26T22:35:58.924Z,6.50
2018-11-26T22:38:27.409Z,6.30
2018-11-26T22:40:55.935Z,6.50
2018-11-26T22:43:24.467Z,6.40
2018-11-26T22:45:53.057Z,6.20
2018-11-26T22:48:52.123Z,6.30
2018-11-26T22:51:20.841Z,6.10
2018-11-26T22:53:49.364Z,6.50
2018-11-26T22:56:17.903Z,6.40
2018-11-26T22:58:46.408Z,6.30
2018-11-26T23:01:14.975Z,6.00
2018-11-26T23:03:43.634Z,6.30
2018-11-26T23:06:12.916Z,6.30
2018-11-26T23:08:41.498Z,6.10
2018-11-26T23:11:10.337Z,6.30
2018-11-26T23:13:38.854Z,6.30
2018-11-26T23:16:07.990Z,6.40
2018-11-26T23:18:39.620Z,6.00
2018-11-26T23:21:08.116Z,6.30
2018-11-26T23:23:36.589Z,6.10
2018-11-26T23:26:05.204Z,6.00
2018-11-26T23:28:33.736Z,6.20
2018-11-26T23:31:02.254Z,6.10
2018-11-26T23:33:30.724Z,6.00
2018-11-26T23:35:59.216Z,6.00
2018-11-26T23:38:27.767Z,6.10
2018-11-26T23:40:56.340Z,6.00
2018-11-26T23:43:24.928Z,6.20
2018-11-26T23:45:53.490Z,6.30
2018-11-26T23:48:22.019Z,6.00
2018-11-26T23:50:50.585Z,6.20
2018-11-26T23:53:19.060Z,6.20
2018-11-26T23:55:47.901Z,6.20
2018-11-26T23:58:16.412Z,6.00
